createdAt,value
2019-05-13T00:00:25.433Z,3.87
2019-05-13T00:02:55.283Z,5.33
2019-05-13T00:05:25.133Z,5.00
2019-05-13T00:07:54.969Z,5.07
2019-05-13T00:10:24.779Z,5.10
2019-05-13T00:12:54.600Z,4.73
2019-05-13T00:15:24.452Z,4.50
2019-05-13T00:17:54.437Z,3.50
2019-05-13T00:20:24.550Z,3.67
2019-05-13T00:22:54.443Z,3.77
2019-05-13T00:25:24.310Z,2.83
2019-05-13T00:27:54.244Z,2.90
2019-05-13T00:30:24.094Z,2.77
2019-05-13T00:32:54.566Z,3.13
2019-05-13T00:35:24.541Z,3.77
2019-05-13T00:37:54.402Z,2.63
2019-05-13T00:40:25.056Z,2.93
2019-05-13T00:42:54.879Z,2.97
2019-05-13T00:45:24.696Z,2.40
2019-05-13T00:47:54.516Z,2.60
2019-05-13T00:50:24.351Z,2.73
2019-05-13T00:52:54.181Z,2.20
2019-05-13T00:55:24.077Z,2.70
2019-05-13T00:57:54.184Z,2.33
2019-05-13T01:00:24.459Z,2.53
2019-05-13T01:02:54.211Z,2.30
2019-05-13T01:05:24.078Z,2.60
2019-05-13T01:07:53.908Z,2.83
2019-05-13T01:10:23.874Z,2.50
2019-05-13T01:12:54.025Z,2.50
2019-05-13T01:15:24.742Z,3.17
2019-05-13T01:17:54.796Z,3.13
2019-05-13T01:20:44.175Z,2.50
2019-05-13T01:23:14.694Z,2.77
2019-05-13T01:25:44.937Z,3.33
2019-05-13T01:28:16.952Z,2.83
2019-05-13T01:30:47.306Z,2.80
2019-05-13T01:33:17.378Z,2.67
2019-05-13T01:35:47.709Z,3.20
2019-05-13T01:38:18.136Z,2.73
2019-05-13T01:40:48.387Z,3.00
2019-05-13T01:43:18.792Z,3.07
2019-05-13T01:45:48.893Z,2.57
2019-05-13T01:48:19.267Z,2.77
2019-05-13T01:50:49.257Z,2.63
2019-05-13T01:53:19.424Z,3.10
2019-05-13T01:55:49.768Z,2.50
2019-05-13T01:58:20.258Z,2.20
2019-05-13T02:00:51.755Z,3.20
2019-05-13T02:03:24.605Z,2.80
2019-05-13T02:05:54.710Z,3.07
2019-05-13T02:08:24.973Z,3.37
2019-05-13T02:10:56.698Z,4.13
2019-05-13T02:13:27.307Z,3.73
2019-05-13T02:15:57.494Z,4.30
2019-05-13T02:18:27.582Z,4.93
2019-05-13T02:20:57.705Z,5.77
2019-05-13T02:23:28.253Z,5.70
2019-05-13T02:25:58.487Z,4.90
2019-05-13T02:28:29.003Z,5.13
2019-05-13T02:30:59.649Z,5.87
2019-05-13T02:33:33.571Z,5.20
2019-05-13T02:36:03.366Z,4.43
2019-05-13T02:38:35.541Z,4.90
2019-05-13T02:41:05.718Z,4.30
2019-05-13T02:43:40.437Z,4.07
2019-05-13T02:46:08.309Z,3.50
2019-05-13T02:48:41.974Z,3.17
2019-05-13T02:51:12.449Z,3.43
2019-05-13T02:53:43.659Z,3.27
2019-05-13T02:56:14.325Z,3.30
2019-05-13T02:58:44.983Z,3.30
2019-05-13T03:01:15.499Z,2.60
2019-05-13T03:03:46.782Z,2.33
2019-05-13T03:06:17.340Z,3.00
2019-05-13T03:08:50.178Z,2.60
2019-05-13T03:11:22.471Z,3.10
2019-05-13T03:13:52.937Z,3.43
2019-05-13T03:16:32.436Z,3.07
2019-05-13T03:19:03.240Z,2.63
2019-05-13T03:21:33.703Z,2.67
2019-05-13T03:24:03.966Z,2.63
2019-05-13T03:26:34.262Z,3.07
2019-05-13T03:29:04.870Z,2.20
2019-05-13T03:31:36.385Z,3.47
2019-05-13T03:34:07.583Z,3.77
2019-05-13T03:36:44.911Z,3.00
2019-05-13T03:39:15.919Z,3.43
2019-05-13T03:41:45.586Z,3.03
2019-05-13T03:44:19.126Z,2.77
2019-05-13T03:46:52.903Z,3.20
2019-05-13T03:49:27.033Z,2.40
2019-05-13T03:51:57.860Z,2.63
2019-05-13T03:54:28.720Z,3.03
2019-05-13T03:57:03.523Z,3.33
2019-05-13T03:59:33.434Z,3.03
2019-05-13T04:02:04.294Z,2.53
2019-05-13T04:04:34.600Z,3.30
2019-05-13T04:07:05.973Z,2.53
2019-05-13T04:09:38.107Z,2.67
2019-05-13T04:12:13.319Z,3.07
2019-05-13T04:14:42.361Z,2.73
2019-05-13T04:17:12.964Z,2.53
2019-05-13T04:19:45.158Z,3.20
2019-05-13T04:22:17.087Z,3.07
2019-05-13T04:24:47.671Z,2.57
2019-05-13T04:27:18.418Z,2.90
2019-05-13T04:29:48.610Z,4.30
2019-05-13T04:32:19.030Z,2.80
2019-05-13T04:34:52.639Z,2.50
2019-05-13T04:37:22.318Z,3.57
2019-05-13T04:39:56.409Z,2.97
2019-05-13T04:42:27.090Z,2.77
2019-05-13T04:44:57.814Z,2.60
2019-05-13T04:47:28.176Z,3.23
2019-05-13T04:50:02.578Z,2.80
2019-05-13T04:52:32.965Z,3.30
2019-05-13T04:55:03.705Z,3.10
2019-05-13T04:57:34.450Z,3.07
2019-05-13T05:00:06.664Z,2.97
2019-05-13T05:02:50.344Z,2.80
2019-05-13T05:05:42.034Z,3.37
2019-05-13T05:08:32.836Z,3.07
2019-05-13T05:11:22.395Z,2.90
2019-05-13T05:14:08.076Z,2.97
2019-05-13T05:16:44.678Z,2.97
2019-05-13T05:19:32.522Z,2.57
2019-05-13T05:22:23.945Z,2.80
2019-05-13T05:25:13.722Z,2.87
2019-05-13T05:27:52.518Z,2.90
2019-05-13T05:31:02.301Z,3.10
2019-05-13T05:33:52.640Z,3.13
2019-05-13T05:36:48.674Z,2.60
2019-05-13T05:39:24.405Z,2.30
2019-05-13T05:41:56.935Z,2.17
2019-05-13T05:44:32.366Z,2.03
2019-05-13T05:47:03.873Z,2.40
2019-05-13T05:49:34.220Z,2.37
2019-05-13T05:52:08.679Z,2.30
2019-05-13T05:54:42.192Z,2.07
2019-05-13T05:57:12.940Z,2.00
2019-05-13T05:59:43.716Z,2.00
2019-05-13T06:02:14.455Z,2.90
2019-05-13T06:04:47.326Z,3.13
2019-05-13T06:07:18.462Z,2.60
2019-05-13T06:09:51.467Z,2.20
2019-05-13T06:12:22.062Z,2.53
2019-05-13T06:14:52.652Z,2.83
2019-05-13T06:17:23.189Z,2.17
2019-05-13T06:19:53.380Z,2.00
2019-05-13T06:22:23.736Z,2.60
2019-05-13T06:24:54.023Z,2.60
2019-05-13T06:27:25.784Z,2.27
2019-05-13T06:29:56.024Z,2.23
2019-05-13T06:32:26.752Z,2.43
2019-05-13T06:34:57.138Z,2.80
2019-05-13T06:37:28.930Z,2.70
2019-05-13T06:40:02.568Z,1.83
2019-05-13T06:42:32.594Z,2.60
2019-05-13T06:45:03.377Z,2.07
2019-05-13T06:47:36.195Z,1.93
2019-05-13T06:50:06.669Z,2.47
2019-05-13T06:52:36.825Z,2.80
2019-05-13T06:55:07.666Z,2.80
2019-05-13T06:57:38.243Z,2.20
2019-05-13T07:00:09.155Z,2.67
2019-05-13T07:02:39.173Z,2.00
2019-05-13T07:05:11.828Z,2.03
2019-05-13T07:07:42.393Z,2.10
2019-05-13T07:10:13.029Z,2.13
2019-05-13T07:12:43.248Z,1.97
2019-05-13T07:15:13.574Z,1.90
2019-05-13T07:17:44.108Z,1.90
2019-05-13T07:20:15.534Z,2.07
2019-05-13T07:22:46.110Z,2.10
2019-05-13T07:25:16.659Z,1.70
2019-05-13T07:27:47.499Z,1.80
2019-05-13T07:30:21.291Z,1.90
